Time;durP1;ratioP1;P1;durP2;ratioP2;P2;SDS_P1;SDS_P2;PMS_P1;PMS_P2;Temp;Humidity;BMP_temperature;BMP_pressure;BME280_temperature;BME280_humidity;BME280_pressure;Samples;Min_cycle;Max_cycle;Signal;HPM_P1;HPM_P2
2022/06/01 00:01:07;;;;;;;4.70;4.30;;;12.90;99.90;;;;;;4939585;29;20202;-77
2022/06/01 00:03:36;;;;;;;5.15;4.65;;;12.80;99.90;;;;;;4939812;29;20198;-77
2022/06/01 00:06:04;;;;;;;4.88;4.45;;;12.80;99.90;;;;;;4918649;29;20210;-77
2022/06/01 00:08:32;;;;;;;4.93;4.25;;;12.80;99.90;;;;;;4914814;29;20226;-77
2022/06/01 00:11:10;;;;;;;5.25;4.85;;;12.70;99.90;;;;;;4916165;29;20233;-77
2022/06/01 00:13:38;;;;;;;4.80;4.28;;;12.80;99.90;;;;;;4941885;29;20207;-77
2022/06/01 00:16:08;;;;;;;5.07;4.57;;;12.80;99.90;;;;;;4934565;29;20205;-77
2022/06/01 00:18:36;;;;;;;4.72;4.32;;;12.90;99.90;;;;;;4918092;29;20241;-77
2022/06/01 00:21:04;;;;;;;4.68;4.30;;;13.00;99.90;;;;;;4938338;29;20210;-77
2022/06/01 00:23:32;;;;;;;5.10;4.70;;;12.80;99.90;;;;;;4919971;29;20203;-77
2022/06/01 00:25:59;;;;;;;5.03;4.63;;;12.70;99.90;;;;;;4926597;29;20209;-77
2022/06/01 00:28:27;;;;;;;5.28;4.75;;;12.50;99.90;;;;;;4942256;28;20225;-77
2022/06/01 00:30:54;;;;;;;5.68;5.22;;;12.60;99.90;;;;;;4915276;29;20696;-76
2022/06/01 00:33:23;;;;;;;5.65;5.18;;;12.50;99.90;;;;;;4918481;29;20202;-77
2022/06/01 00:35:51;;;;;;;5.97;5.40;;;12.60;99.90;;;;;;4919556;29;20206;-77
2022/06/01 00:38:18;;;;;;;5.32;4.93;;;12.60;99.90;;;;;;4920170;29;20221;-77
2022/06/01 00:40:46;;;;;;;5.63;5.13;;;12.60;99.90;;;;;;4938771;29;20194;-77
2022/06/01 00:43:22;;;;;;;5.82;5.32;;;12.60;99.90;;;;;;4934040;29;20209;-77
2022/06/01 00:45:50;;;;;;;6.30;5.80;;;12.70;99.90;;;;;;4934354;29;20202;-77
2022/06/01 00:48:19;;;;;;;6.10;5.60;;;12.60;99.90;;;;;;4904631;29;20241;-77
2022/06/01 00:50:47;;;;;;;7.28;6.68;;;12.60;99.90;;;;;;4941237;29;20226;-77
2022/06/01 00:53:17;;;;;;;7.97;7.27;;;12.50;99.90;;;;;;4941764;29;20202;-77
2022/06/01 00:56:07;;;;;;;8.30;7.47;;;12.60;99.90;;;;;;4933152;29;20202;-77
2022/06/01 00:58:39;;;;;;;8.30;7.60;;;12.50;99.90;;;;;;4923976;29;20217;-77
2022/06/01 01:01:09;;;;;;;8.37;7.67;;;12.50;99.90;;;;;;4927718;29;20206;-77
2022/06/01 01:03:40;;;;;;;7.70;7.00;;;12.40;99.90;;;;;;4935941;29;20199;-76
2022/06/01 01:06:13;;;;;;;7.93;7.23;;;12.50;99.90;;;;;;4911024;29;20202;-77
2022/06/01 01:08:42;;;;;;;8.07;7.27;;;12.50;99.90;;;;;;4918350;29;20218;-77
2022/06/01 01:11:10;;;;;;;8.18;7.38;;;12.50;99.90;;;;;;4926363;29;20225;-77
2022/06/01 01:13:41;;;;;;;8.07;7.38;;;12.40;99.90;;;;;;4918756;29;20203;-76
2022/06/01 01:16:10;;;;;;;7.83;7.23;;;12.40;99.90;;;;;;4910441;29;20198;-77
2022/06/01 01:18:40;;;;;;;8.80;8.03;;;12.30;99.90;;;;;;4916970;29;20225;-77
2022/06/01 01:21:16;;;;;;;9.50;8.70;;;12.30;99.90;;;;;;4930232;29;20596;-77
2022/06/01 01:23:57;;;;;;;8.10;7.40;;;12.20;99.90;;;;;;4918835;29;20209;-77
2022/06/01 01:26:28;;;;;;;8.27;7.57;;;12.20;99.90;;;;;;4910170;29;20209;-77
2022/06/01 01:28:56;;;;;;;8.80;8.10;;;12.40;99.90;;;;;;4925989;29;20222;-77
2022/06/01 01:31:24;;;;;;;8.30;7.57;;;12.30;99.90;;;;;;4924295;29;20241;-77
2022/06/01 01:33:57;;;;;;;8.57;7.87;;;12.30;99.90;;;;;;4933570;29;20207;-77
2022/06/01 01:36:28;;;;;;;7.95;7.30;;;12.30;99.90;;;;;;4932672;29;20249;-77
2022/06/01 01:39:02;;;;;;;9.00;8.20;;;12.30;99.90;;;;;;4918760;29;20709;-76
2022/06/01 01:41:36;;;;;;;10.57;9.57;;;12.30;99.90;;;;;;4930582;29;20203;-77
2022/06/01 01:44:09;;;;;;;9.70;8.87;;;12.00;99.90;;;;;;4908652;29;20207;-77
2022/06/01 01:47:19;;;;;;;9.95;9.05;;;12.00;99.90;;;;;;4933401;29;20202;-77
2022/06/01 01:49:47;;;;;;;10.30;9.30;;;12.00;99.90;;;;;;4929294;23;20219;-75
2022/06/01 01:52:18;;;;;;;10.73;9.60;;;12.00;99.90;;;;;;4922206;29;20223;-75
2022/06/01 01:54:53;;;;;;;10.97;9.90;;;12.00;99.90;;;;;;4913568;29;20207;-75
2022/06/01 01:57:34;;;;;;;9.83;8.90;;;12.00;99.90;;;;;;4909673;29;20713;-75
2022/06/01 02:00:14;;;;;;;9.23;8.43;;;12.20;99.90;;;;;;4927508;29;20238;-75
2022/06/01 02:02:47;;;;;;;9.43;8.63;;;12.30;99.90;;;;;;4906243;29;20195;-75
2022/06/01 02:08:24;;;;;;;11.60;10.50;;;12.00;99.90;;;;;;4913306;29;20191;-75
2022/06/01 02:13:45;;;;;;;11.50;10.40;;;12.00;99.90;;;;;;4908762;29;20203;-75
2022/06/01 02:16:13;;;;;;;11.67;10.67;;;11.90;99.90;;;;;;4912474;29;20199;-76
2022/06/01 02:18:45;;;;;;;11.70;10.57;;;11.90;99.90;;;;;;4913875;29;20202;-76
2022/06/01 02:21:16;;;;;;;11.97;10.97;;;11.90;99.90;;;;;;4913475;29;20187;-75
2022/06/01 02:23:44;;;;;;;10.90;9.80;;;12.00;99.90;;;;;;4925334;29;20209;-75
2022/06/01 02:26:11;;;;;;;12.00;10.90;;;11.90;99.90;;;;;;4925455;29;20208;-76
2022/06/01 02:28:42;;;;;;;13.20;12.00;;;11.80;99.90;;;;;;4912894;29;20788;-76
2022/06/01 02:31:12;;;;;;;12.53;11.27;;;11.80;99.90;;;;;;4912708;29;20219;-75
2022/06/01 02:33:42;;;;;;;11.97;10.90;;;11.90;99.90;;;;;;4916131;29;20672;-75
2022/06/01 02:36:09;;;;;;;13.07;11.77;;;11.90;99.90;;;;;;4911714;29;20203;-75
2022/06/01 02:38:44;;;;;;;14.07;12.87;;;11.70;99.90;;;;;;4914359;29;20211;-76
2022/06/01 02:43:53;;;;;;;14.63;13.23;;;11.60;99.90;;;;;;4914371;29;20565;-76
2022/06/01 02:46:22;;;;;;;14.47;13.17;;;11.60;99.90;;;;;;4916273;29;20218;-75
2022/06/01 02:48:50;;;;;;;14.63;13.33;;;11.60;99.90;;;;;;4913635;29;20214;-75
2022/06/01 02:51:18;;;;;;;13.27;12.10;;;11.60;99.90;;;;;;4917006;29;20680;-75
2022/06/01 02:53:45;;;;;;;15.90;14.27;;;11.40;99.90;;;;;;4914003;29;20187;-75
2022/06/01 02:56:13;;;;;;;16.23;14.63;;;11.50;99.90;;;;;;4909388;29;20565;-75
2022/06/01 02:58:41;;;;;;;15.60;13.67;;;11.30;99.90;;;;;;4914923;29;20199;-75
2022/06/01 03:01:09;;;;;;;16.53;14.87;;;11.30;99.90;;;;;;4910462;29;20704;-75
2022/06/01 03:03:39;;;;;;;16.30;14.67;;;11.30;99.90;;;;;;4933036;29;20210;-75
2022/06/01 03:06:06;;;;;;;16.73;14.97;;;11.30;99.90;;;;;;4907260;29;20199;-75
2022/06/01 03:09:19;;;;;;;16.53;15.03;;;11.30;99.90;;;;;;4918551;29;20195;-75
2022/06/01 03:11:47;;;;;;;17.50;15.80;;;11.30;99.90;;;;;;4915751;29;20222;-75
2022/06/01 03:14:14;;;;;;;17.23;15.57;;;11.40;99.90;;;;;;4930868;29;20216;-75
2022/06/01 03:16:42;;;;;;;17.03;15.23;;;11.30;99.90;;;;;;4914452;29;20551;-75
2022/06/01 03:19:11;;;;;;;16.20;14.57;;;11.30;99.90;;;;;;4916108;29;20606;-75
2022/06/01 03:21:40;;;;;;;14.67;13.27;;;11.30;99.90;;;;;;4908003;29;20210;-75
2022/06/01 03:24:08;;;;;;;16.27;14.67;;;11.40;99.90;;;;;;4914345;29;20211;-76
2022/06/01 03:27:05;;;;;;;15.93;14.33;;;11.30;99.90;;;;;;4909761;29;20230;-75
2022/06/01 03:29:32;;;;;;;15.27;13.87;;;11.20;99.90;;;;;;4905994;29;20245;-75
2022/06/01 03:32:00;;;;;;;14.77;13.40;;;11.30;99.90;;;;;;4916734;29;20219;-75
2022/06/01 03:34:30;;;;;;;16.20;13.70;;;11.40;99.90;;;;;;4911347;29;20211;-75
2022/06/01 03:36:57;;;;;;;16.27;14.23;;;11.20;99.90;;;;;;4910612;29;20211;-75
2022/06/01 03:39:25;;;;;;;15.77;14.07;;;11.30;99.90;;;;;;4915590;29;20230;-75
2022/06/01 03:41:52;;;;;;;14.90;13.50;;;11.30;99.90;;;;;;4918498;29;20203;-75
2022/06/01 03:47:17;;;;;;;14.80;13.30;;;11.40;99.90;;;;;;4924268;29;20194;-75
2022/06/01 03:49:46;;;;;;;14.87;13.37;;;11.50;99.90;;;;;;4906172;29;20226;-75
2022/06/01 03:52:14;;;;;;;14.33;12.93;;;11.50;99.90;;;;;;4916379;29;20214;-75
2022/06/01 03:54:41;;;;;;;16.43;14.73;;;11.30;99.90;;;;;;4915415;29;20207;-75
2022/06/01 03:57:09;;;;;;;16.57;14.87;;;11.20;99.90;;;;;;4910612;29;20207;-75
2022/06/01 03:59:36;;;;;;;16.33;14.67;;;11.30;99.90;;;;;;4915433;29;20227;-75
2022/06/01 04:02:06;;;;;;;16.60;15.00;;;11.30;99.90;;;;;;4917393;29;20559;-75
2022/06/01 04:04:34;;;;;;;17.47;15.77;;;11.30;99.90;;;;;;4917163;29;20210;-75
2022/06/01 04:07:03;;;;;;;17.40;15.70;;;11.20;99.90;;;;;;4916472;29;20199;-75
2022/06/01 04:09:31;;;;;;;18.37;16.57;;;11.20;99.90;;;;;;4913410;29;20692;-75
2022/06/01 04:11:58;;;;;;;17.93;16.23;;;11.30;99.90;;;;;;4928465;29;20605;-75
2022/06/01 04:14:26;;;;;;;18.60;16.80;;;11.40;99.90;;;;;;4912137;29;20678;-75
2022/06/01 04:16:54;;;;;;;17.47;15.77;;;11.40;99.90;;;;;;4912299;29;20206;-75
2022/06/01 04:19:21;;;;;;;18.53;16.50;;;11.40;99.90;;;;;;4909354;29;20239;-75
2022/06/01 04:21:52;;;;;;;18.60;16.87;;;11.40;99.90;;;;;;4915153;29;20210;-75
2022/06/01 04:24:26;;;;;;;17.77;15.97;;;11.40;99.90;;;;;;4911783;29;20218;-75
2022/06/01 04:26:53;;;;;;;18.50;16.80;;;11.50;99.90;;;;;;4915785;29;20199;-75
2022/06/01 04:29:39;;;;;;;19.27;17.43;;;11.50;99.90;;;;;;4909716;29;20219;-75
2022/06/01 04:32:11;;;;;;;18.57;16.67;;;11.40;99.90;;;;;;4913524;29;20221;-75
2022/06/01 04:34:39;;;;;;;16.90;15.20;;;11.50;99.90;;;;;;4915659;29;20688;-75
2022/06/01 04:37:06;;;;;;;18.73;16.90;;;11.70;99.90;;;;;;4916520;29;20570;-75
2022/06/01 04:39:35;;;;;;;18.23;16.23;;;11.60;99.90;;;;;;4913986;29;20234;-75
2022/06/01 04:42:03;;;;;;;18.27;16.37;;;11.70;99.90;;;;;;4928760;29;20214;-75
2022/06/01 04:44:55;;;;;;;18.50;16.57;;;11.80;99.90;;;;;;4908682;29;20227;-75
2022/06/01 04:47:23;;;;;;;19.15;17.25;;;11.80;99.90;;;;;;4916071;29;20219;-75
2022/06/01 04:49:50;;;;;;;19.83;17.60;;;11.80;99.90;;;;;;4916508;29;20219;-75
2022/06/01 04:52:17;;;;;;;20.38;18.23;;;11.70;99.90;;;;;;4908076;29;20219;-75
2022/06/01 04:54:46;;;;;;;19.48;17.52;;;11.80;99.90;;;;;;4910905;29;20531;-75
2022/06/01 04:57:13;;;;;;;21.83;19.50;;;11.80;99.90;;;;;;4914813;29;20662;-77
2022/06/01 04:59:40;;;;;;;22.37;19.53;;;11.80;99.90;;;;;;4916054;29;20219;-75
2022/06/01 05:02:08;;;;;;;20.65;18.52;;;11.70;99.90;;;;;;4931724;29;20215;-75
2022/06/01 05:04:35;;;;;;;19.35;17.27;;;11.80;99.90;;;;;;4915174;29;20210;-75
2022/06/01 05:07:03;;;;;;;20.10;18.23;;;11.90;99.90;;;;;;4905186;29;20207;-77
2022/06/01 05:09:30;;;;;;;21.70;19.20;;;11.80;99.90;;;;;;4914518;29;20571;-74
2022/06/01 05:11:59;;;;;;;20.57;18.47;;;11.80;99.90;;;;;;4915416;29;20199;-77
2022/06/01 05:14:26;;;;;;;20.60;18.45;;;11.80;99.90;;;;;;4905327;29;20232;-75
2022/06/01 05:16:58;;;;;;;20.25;18.23;;;11.80;99.90;;;;;;4920243;29;20563;-75
2022/06/01 05:19:44;;;;;;;21.47;18.80;;;11.80;99.90;;;;;;4913829;29;20223;-75
2022/06/01 05:22:19;;;;;;;20.45;18.30;;;11.90;99.90;;;;;;4914132;29;20213;-75
2022/06/01 05:24:48;;;;;;;19.75;17.25;;;12.00;99.90;;;;;;4915265;29;20214;-75
2022/06/01 05:27:17;;;;;;;20.55;18.35;;;12.10;99.90;;;;;;4916300;29;20199;-75
2022/06/01 05:29:47;;;;;;;21.38;17.25;;;12.20;99.90;;;;;;4915331;29;20223;-76
2022/06/01 05:32:15;;;;;;;20.17;18.08;;;12.20;99.90;;;;;;4914096;29;20199;-75
2022/06/01 05:34:42;;;;;;;23.05;18.08;;;12.50;99.90;;;;;;4913522;29;20237;-75
2022/06/01 05:37:15;;;;;;;20.27;18.27;;;12.80;99.90;;;;;;4914617;29;20210;-75
2022/06/01 05:39:42;;;;;;;20.20;18.05;;;12.50;99.90;;;;;;4915370;29;20592;-75
2022/06/01 05:42:14;;;;;;;22.52;18.75;;;12.40;99.90;;;;;;4908268;29;20561;-75
2022/06/01 05:44:43;;;;;;;21.95;18.95;;;12.40;99.90;;;;;;4906574;29;20689;-75
2022/06/01 05:47:13;;;;;;;22.20;17.98;;;12.60;99.90;;;;;;4913758;29;20206;-76
2022/06/01 05:49:41;;;;;;;21.33;19.23;;;12.40;99.90;;;;;;4914673;29;20712;-75
2022/06/01 05:52:08;;;;;;;22.10;19.70;;;12.20;99.90;;;;;;4914517;29;20211;-76
2022/06/01 05:54:45;;;;;;;21.13;19.00;;;12.20;99.90;;;;;;4905987;29;21014;-75
2022/06/01 05:57:13;;;;;;;23.60;20.33;;;12.30;99.90;;;;;;4913799;29;20203;-76
2022/06/01 06:03:03;;;;;;;23.95;21.13;;;12.50;99.90;;;;;;4910937;29;20198;-76
2022/06/01 06:08:20;;;;;;;21.35;19.25;;;12.40;99.90;;;;;;4909423;29;20213;-77
2022/06/01 06:10:48;;;;;;;23.35;20.60;;;12.50;99.90;;;;;;4910071;29;20231;-77
2022/06/01 06:13:15;;;;;;;22.02;19.70;;;12.70;99.90;;;;;;4927046;29;20219;-76
2022/06/01 06:15:43;;;;;;;26.58;20.92;;;12.80;99.90;;;;;;4908745;29;20565;-77
2022/06/01 06:18:13;;;;;;;23.40;20.58;;;12.70;99.90;;;;;;4928991;29;20207;-76
2022/06/01 06:20:42;;;;;;;23.40;20.98;;;12.60;99.90;;;;;;4914895;29;20226;-76
2022/06/01 06:23:10;;;;;;;24.05;20.48;;;12.70;99.90;;;;;;4914471;29;20199;-76
2022/06/01 06:25:38;;;;;;;22.30;19.77;;;12.60;99.90;;;;;;4930321;29;20203;-76
2022/06/01 06:28:05;;;;;;;21.60;19.17;;;12.60;99.90;;;;;;4914907;29;20199;-76
2022/06/01 06:30:33;;;;;;;22.58;19.90;;;12.90;99.90;;;;;;4909164;29;20572;-76
2022/06/01 06:33:01;;;;;;;22.85;19.77;;;12.80;99.90;;;;;;4914423;29;20217;-76
2022/06/01 06:35:29;;;;;;;21.00;18.67;;;12.90;99.90;;;;;;4898674;29;20211;-76
2022/06/01 06:37:57;;;;;;;21.95;18.75;;;13.00;99.90;;;;;;4914136;29;20202;-76
2022/06/01 06:40:25;;;;;;;20.88;18.58;;;13.10;99.90;;;;;;4915916;29;20219;-76
2022/06/01 06:42:52;;;;;;;19.33;17.23;;;13.20;99.90;;;;;;4915010;29;20280;-76
2022/06/01 06:45:21;;;;;;;19.83;17.65;;;13.10;99.90;;;;;;4914909;29;20203;-76
2022/06/01 06:47:48;;;;;;;19.27;17.20;;;13.10;99.90;;;;;;4916016;29;20206;-76
2022/06/01 06:50:18;;;;;;;19.15;16.90;;;13.10;99.90;;;;;;4913507;29;20231;-76
2022/06/01 06:53:06;;;;;;;19.13;16.42;;;13.10;99.90;;;;;;4927101;29;20215;-76
2022/06/01 06:55:33;;;;;;;19.00;16.98;;;13.30;99.90;;;;;;4907174;29;20203;-76
2022/06/01 06:58:01;;;;;;;17.98;16.15;;;13.30;99.90;;;;;;4905775;29;20211;-76
2022/06/01 07:00:28;;;;;;;19.83;15.48;;;13.40;99.90;;;;;;4914304;29;20230;-76
2022/06/01 07:02:55;;;;;;;17.55;15.73;;;13.60;99.90;;;;;;4914268;29;20207;-76
2022/06/01 07:08:07;;;;;;;13.32;11.20;;;13.80;99.90;;;;;;4915141;29;20575;-77
2022/06/01 07:10:35;;;;;;;14.00;10.73;;;13.70;99.90;;;;;;4915130;29;20724;-77
2022/06/01 07:13:02;;;;;;;11.82;10.57;;;13.50;99.90;;;;;;4915771;29;20207;-77
2022/06/01 07:15:29;;;;;;;13.13;9.85;;;13.50;99.90;;;;;;4915794;29;20230;-77
2022/06/01 07:17:57;;;;;;;12.57;9.85;;;13.40;99.90;;;;;;4911920;29;20200;-76
2022/06/01 07:20:24;;;;;;;9.88;8.88;;;13.60;99.90;;;;;;4910516;29;20238;-77
2022/06/01 07:23:22;;;;;;;8.75;7.85;;;13.70;99.90;;;;;;4916295;29;20214;-76
2022/06/01 07:25:49;;;;;;;8.90;8.00;;;13.90;99.90;;;;;;4912132;29;20210;-77
2022/06/01 07:28:16;;;;;;;9.02;5.93;;;14.40;99.90;;;;;;4916899;29;20207;-76
2022/06/01 07:30:44;;;;;;;7.97;5.25;;;14.50;99.90;;;;;;4917961;29;20231;-76
2022/06/01 07:33:11;;;;;;;5.63;5.03;;;14.10;99.90;;;;;;4917835;29;20214;-76
2022/06/01 07:35:38;;;;;;;6.10;5.22;;;13.80;99.90;;;;;;4918411;29;20242;-76
2022/06/01 07:44:05;;;;;;;7.88;6.88;;;14.40;99.90;;;;;;4915189;29;20198;-76
2022/06/01 07:46:34;;;;;;;8.68;6.30;;;14.40;99.90;;;;;;4917151;29;20207;-76
2022/06/01 07:49:01;;;;;;;13.90;6.18;;;14.20;99.90;;;;;;4913408;29;20219;-76
2022/06/01 07:51:29;;;;;;;7.90;7.20;;;14.20;99.90;;;;;;4945066;23;20217;-76
2022/06/01 07:53:56;;;;;;;7.93;7.22;;;14.20;99.90;;;;;;4921894;29;20218;-76
2022/06/01 07:56:25;;;;;;;8.57;7.43;;;14.40;99.90;;;;;;4943617;28;20684;-77
2022/06/01 07:58:53;;;;;;;8.60;6.90;;;14.60;99.90;;;;;;4921425;29;20213;-77
2022/06/01 08:01:25;;;;;;;10.35;8.02;;;14.70;99.90;;;;;;4947339;29;20229;-77
2022/06/01 08:03:52;;;;;;;7.22;6.35;;;14.80;99.90;;;;;;4940291;29;20213;-77
2022/06/01 08:06:19;;;;;;;7.13;6.32;;;14.90;99.90;;;;;;4923977;29;20222;-77
2022/06/01 08:08:47;;;;;;;8.13;6.10;;;15.00;99.90;;;;;;4936615;29;20206;-77
2022/06/01 08:11:14;;;;;;;6.95;6.35;;;14.60;99.90;;;;;;4921026;29;20228;-77
2022/06/01 08:13:42;;;;;;;7.60;6.80;;;14.50;99.90;;;;;;4919712;29;20218;-77
2022/06/01 08:16:10;;;;;;;8.77;7.20;;;14.40;99.90;;;;;;4919988;29;20210;-77
2022/06/01 08:18:37;;;;;;;7.63;6.60;;;14.40;99.90;;;;;;4920267;29;20214;-77
2022/06/01 08:21:05;;;;;;;7.97;7.18;;;14.60;99.90;;;;;;4920572;29;20219;-77
2022/06/01 08:23:33;;;;;;;8.63;7.25;;;14.70;99.90;;;;;;4921056;29;20577;-77
2022/06/01 08:26:00;;;;;;;7.00;6.07;;;14.80;99.90;;;;;;4912073;29;20214;-77
2022/06/01 08:28:28;;;;;;;8.52;7.18;;;14.90;99.90;;;;;;4901424;29;20203;-77
2022/06/01 08:30:56;;;;;;;7.22;6.53;;;14.80;99.90;;;;;;4901241;29;20239;-77
2022/06/01 08:33:24;;;;;;;8.48;7.57;;;15.00;99.90;;;;;;4900866;29;20207;-77
2022/06/01 08:36:17;;;;;;;7.53;6.75;;;15.10;99.90;;;;;;4926181;29;20214;-78
2022/06/01 08:38:44;;;;;;;7.88;7.18;;;15.00;99.90;;;;;;4931232;29;20679;-77
2022/06/01 08:41:15;;;;;;;9.45;7.50;;;15.00;99.90;;;;;;4922861;29;20225;-77
2022/06/01 08:43:49;;;;;;;7.88;7.07;;;15.10;99.90;;;;;;4920334;29;20213;-77
2022/06/01 08:46:36;;;;;;;6.85;6.25;;;15.20;99.90;;;;;;4918933;29;20199;-78
2022/06/01 08:49:12;;;;;;;8.23;5.90;;;15.40;99.90;;;;;;4919474;29;20698;-78
2022/06/01 08:51:39;;;;;;;5.20;4.25;;;15.60;99.90;;;;;;4919424;29;20233;-78
2022/06/01 08:54:06;;;;;;;4.55;3.80;;;15.50;99.90;;;;;;4919802;29;20229;-78
2022/06/01 08:56:37;;;;;;;5.82;3.95;;;15.40;99.90;;;;;;4919541;29;20202;-78
2022/06/01 08:59:19;;;;;;;4.32;3.92;;;15.00;99.90;;;;;;4932900;29;20202;-78
2022/06/01 09:01:59;;;;;;;4.35;3.95;;;14.90;99.90;;;;;;4941418;28;20214;-78
2022/06/01 09:04:35;;;;;;;4.22;3.83;;;14.90;99.90;;;;;;4919671;29;20209;-79
2022/06/01 09:07:23;;;;;;;4.60;4.20;;;14.80;99.90;;;;;;4925089;29;20601;-78
2022/06/01 09:10:06;;;;;;;5.63;5.13;;;14.70;99.90;;;;;;4912674;29;20556;-78
2022/06/01 09:12:35;;;;;;;6.93;5.53;;;15.10;99.90;;;;;;4912701;29;20206;-78
2022/06/01 09:15:11;;;;;;;5.07;4.68;;;15.10;99.90;;;;;;4923368;29;20589;-78
2022/06/01 09:17:43;;;;;;;6.57;4.80;;;14.90;99.90;;;;;;4926442;29;20225;-78
2022/06/01 09:23:02;;;;;;;4.25;3.95;;;14.80;99.90;;;;;;4929393;29;20201;-78
2022/06/01 09:25:54;;;;;;;4.45;4.05;;;14.90;99.90;;;;;;4926537;29;20652;-79
2022/06/01 09:28:24;;;;;;;4.40;4.00;;;15.10;99.90;;;;;;4918917;29;20206;-78
2022/06/01 09:30:57;;;;;;;4.35;3.95;;;15.20;99.90;;;;;;4925357;29;20241;-78
2022/06/01 09:33:29;;;;;;;5.63;4.80;;;15.20;99.90;;;;;;4924251;29;20211;-76
2022/06/01 09:36:17;;;;;;;4.43;4.03;;;15.10;99.90;;;;;;4918042;29;20214;-77
2022/06/01 09:38:50;;;;;;;5.93;3.80;;;15.10;99.90;;;;;;4927398;29;20235;-77
2022/06/01 09:41:25;;;;;;;4.80;4.35;;;15.20;99.90;;;;;;4919054;29;20227;-77
2022/06/01 09:43:56;;;;;;;6.53;5.10;;;15.00;99.90;;;;;;4915332;29;20199;-77
2022/06/01 09:46:54;;;;;;;5.00;4.55;;;15.00;99.90;;;;;;4915955;29;20660;-77
2022/06/01 09:49:25;;;;;;;5.05;4.65;;;15.10;99.90;;;;;;4917619;29;20664;-77
2022/06/01 09:51:56;;;;;;;4.60;4.15;;;15.40;99.90;;;;;;4916029;29;20237;-77
2022/06/01 09:54:30;;;;;;;4.50;4.07;;;15.40;99.90;;;;;;4918554;29;20280;-77
2022/06/01 09:57:15;;;;;;;4.55;4.10;;;15.40;99.90;;;;;;4911040;29;20205;-76
2022/06/01 10:08:59;;;;;;;5.25;4.35;;;15.10;99.90;;;;;;4938478;29;20229;-76
2022/06/01 10:11:34;;;;;;;4.82;4.32;;;15.40;99.90;;;;;;4930878;29;20222;-77
2022/06/01 10:14:14;;;;;;;4.50;4.13;;;15.70;99.90;;;;;;4917040;29;20213;-75
2022/06/01 10:17:18;;;;;;;4.63;4.10;;;15.70;99.90;;;;;;4932793;29;20230;-76
2022/06/01 10:19:54;;;;;;;4.18;3.80;;;16.00;99.90;;;;;;4908770;29;20202;-76
2022/06/01 10:22:43;;;;;;;4.75;4.35;;;16.20;99.90;;;;;;4920392;29;20209;-75
2022/06/01 10:25:15;;;;;;;6.05;4.30;;;15.90;99.60;;;;;;4919096;29;20197;-75
2022/06/01 10:27:51;;;;;;;7.30;4.57;;;15.80;99.90;;;;;;4945442;29;20230;-75
2022/06/01 10:30:21;;;;;;;4.28;3.95;;;15.70;99.90;;;;;;4935820;29;20232;-75
2022/06/01 10:32:55;;;;;;;4.78;4.03;;;15.90;99.90;;;;;;4922372;29;20198;-76
2022/06/01 10:35:33;;;;;;;5.70;4.15;;;16.00;99.90;;;;;;4923257;29;20237;-76
2022/06/01 10:38:10;;;;;;;4.50;3.45;;;16.10;99.90;;;;;;4935092;29;20206;-76
2022/06/01 10:40:57;;;;;;;4.00;3.70;;;16.20;99.30;;;;;;4917050;29;20580;-75
2022/06/01 10:43:46;;;;;;;6.32;4.53;;;16.10;98.80;;;;;;4931591;29;20228;-76
2022/06/01 10:46:35;;;;;;;4.78;4.22;;;16.10;98.00;;;;;;4932060;29;20674;-76
2022/06/01 10:49:17;;;;;;;5.45;3.53;;;16.40;98.00;;;;;;4921914;29;20199;-76
2022/06/01 10:51:51;;;;;;;4.55;4.03;;;16.50;96.80;;;;;;4913338;29;20226;-75
2022/06/01 10:54:28;;;;;;;4.07;3.67;;;16.40;96.30;;;;;;4922089;29;20206;-75
2022/06/01 10:56:58;;;;;;;4.97;3.03;;;16.30;95.90;;;;;;4937167;29;20221;-75
2022/06/01 10:59:26;;;;;;;5.47;3.42;;;16.40;97.20;;;;;;4926945;29;20213;-75
2022/06/01 11:02:02;;;;;;;3.78;3.47;;;16.40;96.40;;;;;;4936877;29;20238;-76
2022/06/01 11:05:14;;;;;;;5.63;3.78;;;16.30;96.20;;;;;;4917071;29;20683;-75
2022/06/01 11:08:14;;;;;;;5.03;4.32;;;15.90;97.70;;;;;;4884744;29;20629;-75
2022/06/01 11:10:54;;;;;;;3.42;3.13;;;16.00;97.70;;;;;;4932979;29;20253;-75
2022/06/01 11:13:34;;;;;;;4.30;3.90;;;16.10;97.50;;;;;;4922614;29;20214;-76
2022/06/01 11:16:14;;;;;;;4.82;4.15;;;16.20;96.30;;;;;;4927030;29;20226;-77
2022/06/01 11:18:58;;;;;;;4.35;3.95;;;16.20;96.40;;;;;;4940719;29;20537;-77
2022/06/01 11:21:30;;;;;;;4.13;3.80;;;16.40;96.50;;;;;;4923499;29;20596;-77
2022/06/01 11:24:12;;;;;;;4.63;3.65;;;16.50;96.00;;;;;;4920708;29;20206;-76
2022/06/01 11:26:59;;;;;;;5.25;4.13;;;16.50;96.20;;;;;;4921207;29;20201;-77
2022/06/01 11:29:53;;;;;;;4.22;3.75;;;16.60;97.00;;;;;;4927875;29;20667;-77
2022/06/01 11:32:25;;;;;;;5.63;3.50;;;16.60;96.90;;;;;;4942016;29;20223;-77
2022/06/01 11:34:58;;;;;;;4.10;3.45;;;16.90;96.20;;;;;;4937071;29;20206;-77
2022/06/01 11:37:32;;;;;;;3.17;2.95;;;16.90;95.20;;;;;;4933805;29;20265;-77
2022/06/01 11:40:07;;;;;;;5.50;3.30;;;16.90;95.50;;;;;;4941568;29;20665;-77
2022/06/01 11:42:40;;;;;;;3.38;3.10;;;16.80;95.10;;;;;;4940527;29;20197;-77
2022/06/01 11:45:12;;;;;;;4.50;3.63;;;16.70;95.30;;;;;;4931570;29;20578;-77
2022/06/01 11:47:46;;;;;;;3.58;3.22;;;16.60;95.60;;;;;;4937767;29;20209;-76
2022/06/01 11:50:20;;;;;;;3.00;2.80;;;16.60;94.40;;;;;;4920279;29;20657;-77
2022/06/01 11:52:54;;;;;;;5.80;2.80;;;16.80;95.60;;;;;;4920607;29;20206;-77
2022/06/01 11:55:31;;;;;;;3.33;2.17;;;17.00;94.60;;;;;;4930191;29;20197;-77
2022/06/01 11:58:11;;;;;;;2.83;2.30;;;17.00;92.40;;;;;;4920177;29;20206;-77
2022/06/01 12:00:43;;;;;;;3.33;2.72;;;17.10;91.70;;;;;;4921060;29;20226;-77
2022/06/01 12:03:40;;;;;;;1.90;1.80;;;16.80;90.50;;;;;;4921237;29;20198;-77
2022/06/01 12:06:11;;;;;;;1.77;1.67;;;16.80;90.90;;;;;;4937467;29;20205;-77
2022/06/01 12:08:43;;;;;;;3.50;2.10;;;16.90;90.80;;;;;;4920511;29;20198;-77
2022/06/01 12:11:16;;;;;;;4.18;2.50;;;16.80;90.30;;;;;;4920434;29;20223;-77
2022/06/01 12:13:56;;;;;;;3.25;2.15;;;16.70;92.40;;;;;;4920708;29;20206;-77
2022/06/01 12:16:26;;;;;;;3.80;2.85;;;16.40;92.90;;;;;;4936785;29;20222;-77
2022/06/01 12:19:08;;;;;;;4.07;2.80;;;16.30;93.90;;;;;;4931858;29;20209;-77
2022/06/01 12:21:54;;;;;;;4.05;2.60;;;16.50;94.30;;;;;;4920380;29;20224;-77
2022/06/01 12:30:14;;;;;;;3.13;2.13;;;17.30;93.00;;;;;;4927128;29;20202;-77
2022/06/01 12:33:08;;;;;;;4.35;2.45;;;17.30;90.70;;;;;;4924700;29;20676;-76
2022/06/01 12:35:54;;;;;;;2.45;2.22;;;17.20;91.20;;;;;;4916038;29;20568;-77
2022/06/01 12:38:38;;;;;;;3.08;2.00;;;17.40;90.80;;;;;;4942898;29;20209;-77
2022/06/01 12:41:13;;;;;;;4.15;2.15;;;17.70;90.90;;;;;;4935708;29;20705;-77
2022/06/01 12:43:49;;;;;;;2.10;1.67;;;17.60;89.60;;;;;;4926868;29;20194;-77
2022/06/01 12:46:24;;;;;;;1.80;1.70;;;17.60;90.50;;;;;;4928644;29;20209;-77
2022/06/01 12:48:51;;;;;;;2.80;1.98;;;17.40;89.10;;;;;;4934123;29;20202;-78
2022/06/01 12:51:19;;;;;;;5.85;2.72;;;17.30;88.70;;;;;;4920890;29;20230;-78
2022/06/01 12:53:49;;;;;;;3.95;2.15;;;17.20;88.20;;;;;;4931919;29;20755;-78
2022/06/01 12:56:19;;;;;;;6.18;3.40;;;17.20;90.00;;;;;;4939860;29;20241;-78
2022/06/01 12:58:50;;;;;;;6.25;3.88;;;16.80;93.50;;;;;;4936729;29;20653;-78
2022/06/01 13:01:19;;;;;;;4.53;4.10;;;16.50;95.90;;;;;;4938147;29;20218;-78
2022/06/01 13:03:50;;;;;;;4.45;3.63;;;16.20;96.50;;;;;;4920774;29;20221;-78
2022/06/01 13:06:21;;;;;;;3.85;3.30;;;16.00;98.30;;;;;;4921205;29;20561;-76
2022/06/01 13:08:58;;;;;;;4.18;3.03;;;15.80;99.20;;;;;;4950083;29;20202;-76
2022/06/01 13:11:28;;;;;;;5.00;2.60;;;15.60;99.70;;;;;;4954197;28;20225;-76
2022/06/01 13:13:59;;;;;;;5.22;2.75;;;15.40;99.90;;;;;;4942860;28;20206;-75
2022/06/01 13:16:37;;;;;;;3.38;2.65;;;15.40;99.90;;;;;;4912758;29;20685;-76
2022/06/01 13:19:21;;;;;;;2.22;2.03;;;15.30;99.90;;;;;;4923419;29;20394;-75
2022/06/01 13:21:54;;;;;;;3.35;2.63;;;15.10;99.90;;;;;;4915909;29;20233;-77
2022/06/01 13:24:22;;;;;;;3.10;2.75;;;15.20;99.90;;;;;;4921176;29;20202;-76
2022/06/01 13:26:53;;;;;;;3.13;2.83;;;15.30;99.90;;;;;;4926932;29;20606;-77
2022/06/01 13:29:25;;;;;;;3.65;3.35;;;14.90;99.90;;;;;;4919044;29;20215;-76
2022/06/01 13:31:54;;;;;;;4.00;3.33;;;14.80;99.90;;;;;;4925128;29;20614;-76
2022/06/01 13:34:31;;;;;;;3.53;3.00;;;14.90;99.90;;;;;;4924777;29;20206;-76
2022/06/01 13:37:06;;;;;;;3.55;3.08;;;14.50;99.90;;;;;;4931706;29;20222;-76
2022/06/01 13:39:37;;;;;;;3.45;3.25;;;14.50;99.90;;;;;;4924796;29;20221;-77
2022/06/01 13:42:23;;;;;;;4.22;3.08;;;14.60;99.90;;;;;;4932810;29;20222;-77
2022/06/01 13:44:52;;;;;;;3.25;2.95;;;14.70;99.90;;;;;;4937779;29;20543;-77
2022/06/01 13:47:43;;;;;;;3.22;2.95;;;14.70;99.90;;;;;;4932838;29;20564;-77
2022/06/01 13:50:27;;;;;;;3.70;2.38;;;14.60;99.90;;;;;;4931148;29;20217;-77